sensor_id;sensor_type;location;lat;lon;timestamp;pressure;altitude;pressure_sealevel;temperature;humidity
61484;BME280;47349;55.640;37.692;2022-07-03T00:21:50;99213.97;;;19.04;59.75
61484;BME280;47349;55.640;37.692;2022-07-03T00:25:51;99209.88;;;19.01;60.70
61484;BME280;47349;55.640;37.692;2022-07-03T00:30:48;99256.78;;;19.25;60.97
61484;BME280;47349;55.640;37.692;2022-07-03T00:35:17;99222.13;;;19.04;63.45
61484;BME280;47349;55.640;37.692;2022-07-03T00:40:07;99258.16;;;19.39;62.07
61484;BME280;47349;55.640;37.692;2022-07-03T00:43:41;99221.13;;;19.21;63.12
61484;BME280;47349;55.640;37.692;2022-07-03T00:48:21;99210.91;;;19.12;60.05
61484;BME280;47349;55.640;37.692;2022-07-03T04:13:37;99190.47;;;21.10;57.11
61484;BME280;47349;55.640;37.692;2022-07-03T04:16:44;99179.34;;;21.16;57.42
61484;BME280;47349;55.640;37.692;2022-07-03T04:20:08;99179.03;;;21.13;57.03
61484;BME280;47349;55.640;37.692;2022-07-03T04:23:18;99207.72;;;21.42;57.16
61484;BME280;47349;55.640;37.692;2022-07-03T04:26:04;99169.16;;;21.07;57.22
61484;BME280;47349;55.640;37.692;2022-07-03T04:29:25;99194.25;;;21.30;57.32
61484;BME280;47349;55.640;37.692;2022-07-03T04:36:39;99204.00;;;21.53;56.90
61484;BME280;47349;55.640;37.692;2022-07-03T04:40:40;99222.34;;;21.63;57.20
61484;BME280;47349;55.640;37.692;2022-07-03T04:43:50;99212.97;;;21.81;57.47
61484;BME280;47349;55.640;37.692;2022-07-03T04:46:20;99221.19;;;21.86;57.96
61484;BME280;47349;55.640;37.692;2022-07-03T04:48:48;99197.47;;;21.87;57.34
61484;BME280;47349;55.640;37.692;2022-07-03T04:51:17;99186.78;;;21.85;57.09
61484;BME280;47349;55.640;37.692;2022-07-03T04:53:44;99205.09;;;21.90;56.91
61484;BME280;47349;55.640;37.692;2022-07-03T04:56:12;99206.53;;;21.97;56.92
61484;BME280;47349;55.640;37.692;2022-07-03T04:58:41;99224.34;;;22.05;57.08
61484;BME280;47349;55.640;37.692;2022-07-03T05:01:10;99190.75;;;22.04;56.93
61484;BME280;47349;55.640;37.692;2022-07-03T05:03:37;99208.88;;;22.16;57.22
61484;BME280;47349;55.640;37.692;2022-07-03T05:06:05;99187.56;;;22.13;56.89
61484;BME280;47349;55.640;37.692;2022-07-03T05:08:32;99194.97;;;22.17;56.43
61484;BME280;47349;55.640;37.692;2022-07-03T05:11:00;99192.81;;;22.19;56.51
61484;BME280;47349;55.640;37.692;2022-07-03T05:13:28;99190.94;;;22.25;57.00
61484;BME280;47349;55.640;37.692;2022-07-03T05:15:56;99198.56;;;22.28;56.42
61484;BME280;47349;55.640;37.692;2022-07-03T05:18:23;99190.94;;;22.30;56.56
61484;BME280;47349;55.640;37.692;2022-07-03T05:20:52;99200.31;;;22.44;56.07
61484;BME280;47349;55.640;37.692;2022-07-03T05:23:19;99201.94;;;22.45;56.46
61484;BME280;47349;55.640;37.692;2022-07-03T05:26:07;99217.75;;;22.43;56.57
61484;BME280;47349;55.640;37.692;2022-07-03T05:28:36;99189.34;;;22.34;56.45
61484;BME280;47349;55.640;37.692;2022-07-03T05:31:06;99185.59;;;22.50;56.31
61484;BME280;47349;55.640;37.692;2022-07-03T05:33:37;99165.06;;;22.43;56.36
61484;BME280;47349;55.640;37.692;2022-07-03T05:36:20;99176.31;;;22.56;55.84
61484;BME280;47349;55.640;37.692;2022-07-03T05:39:03;99203.19;;;22.75;55.88
61484;BME280;47349;55.640;37.692;2022-07-03T05:42:03;99190.69;;;22.89;55.27
61484;BME280;47349;55.640;37.692;2022-07-03T05:44:44;99198.09;;;22.94;55.20
61484;BME280;47349;55.640;37.692;2022-07-03T05:47:26;99213.44;;;23.10;55.67
61484;BME280;47349;55.640;37.692;2022-07-03T05:49:55;99189.41;;;23.12;55.23
61484;BME280;47349;55.640;37.692;2022-07-03T05:52:23;99186.41;;;23.24;54.93
61484;BME280;47349;55.640;37.692;2022-07-03T05:54:51;99192.16;;;23.22;54.25
61484;BME280;47349;55.640;37.692;2022-07-03T05:57:25;99211.00;;;23.19;54.92
61484;BME280;47349;55.640;37.692;2022-07-03T06:00:08;99172.72;;;23.14;54.84
61484;BME280;47349;55.640;37.692;2022-07-03T06:02:38;99177.38;;;23.33;54.50
61484;BME280;47349;55.640;37.692;2022-07-03T06:05:13;99176.03;;;23.51;53.73
61484;BME280;47349;55.640;37.692;2022-07-03T06:08:09;99179.63;;;23.67;54.20
61484;BME280;47349;55.640;37.692;2022-07-03T06:10:39;99196.03;;;23.77;54.18
61484;BME280;47349;55.640;37.692;2022-07-03T06:13:11;99175.78;;;23.68;53.42
61484;BME280;47349;55.640;37.692;2022-07-03T06:15:38;99171.94;;;23.64;53.62
61484;BME280;47349;55.640;37.692;2022-07-03T06:18:08;99150.63;;;23.66;53.13
61484;BME280;47349;55.640;37.692;2022-07-03T06:20:41;99194.09;;;23.93;53.10
61484;BME280;47349;55.640;37.692;2022-07-03T06:23:15;99181.50;;;23.97;52.54
61484;BME280;47349;55.640;37.692;2022-07-03T06:26:03;99155.81;;;23.73;52.64
61484;BME280;47349;55.640;37.692;2022-07-03T06:28:31;99182.88;;;24.00;52.32
61484;BME280;47349;55.640;37.692;2022-07-03T06:31:02;99181.75;;;24.16;52.22
61484;BME280;47349;55.640;37.692;2022-07-03T06:33:48;99197.88;;;24.33;52.14
61484;BME280;47349;55.640;37.692;2022-07-03T06:36:51;99195.69;;;24.45;52.24
61484;BME280;47349;55.640;37.692;2022-07-03T06:39:32;99165.59;;;24.25;52.54
61484;BME280;47349;55.640;37.692;2022-07-03T06:42:20;99151.91;;;24.15;52.03
61484;BME280;47349;55.640;37.692;2022-07-03T06:45:03;99156.28;;;24.21;50.83
61484;BME280;47349;55.640;37.692;2022-07-03T06:47:45;99162.53;;;24.31;50.37
61484;BME280;47349;55.640;37.692;2022-07-03T06:50:29;99185.25;;;24.52;51.12
61484;BME280;47349;55.640;37.692;2022-07-03T06:53:12;99164.75;;;24.40;50.39
61484;BME280;47349;55.640;37.692;2022-07-03T06:55:41;99167.72;;;24.48;49.91
61484;BME280;47349;55.640;37.692;2022-07-03T06:58:33;99190.91;;;24.81;50.23
61484;BME280;47349;55.640;37.692;2022-07-03T07:01:00;99190.28;;;24.90;48.70
61484;BME280;47349;55.640;37.692;2022-07-03T07:03:32;99191.59;;;25.02;49.27
61484;BME280;47349;55.640;37.692;2022-07-03T07:06:15;99172.47;;;24.92;49.80
61484;BME280;47349;55.640;37.692;2022-07-03T07:09:04;99187.44;;;25.15;49.51
61484;BME280;47349;55.640;37.692;2022-07-03T07:11:51;99183.91;;;25.15;47.98
61484;BME280;47349;55.640;37.692;2022-07-03T07:14:19;99168.25;;;25.15;49.17
61484;BME280;47349;55.640;37.692;2022-07-03T07:17:10;99190.53;;;25.43;47.42
61484;BME280;47349;55.640;37.692;2022-07-03T07:19:55;99211.56;;;25.57;47.53
61484;BME280;47349;55.640;37.692;2022-07-03T07:22:38;99200.09;;;25.50;47.96
61484;BME280;47349;55.640;37.692;2022-07-03T07:25:11;99179.94;;;25.31;47.81
61484;BME280;47349;55.640;37.692;2022-07-03T07:27:42;99183.91;;;25.54;47.10
61484;BME280;47349;55.640;37.692;2022-07-03T07:30:23;99162.88;;;25.39;46.55
61484;BME280;47349;55.640;37.692;2022-07-03T07:33:06;99182.41;;;25.67;46.20
61484;BME280;47349;55.640;37.692;2022-07-03T07:35:50;99181.28;;;25.73;46.38
61484;BME280;47349;55.640;37.692;2022-07-03T07:38:34;99175.84;;;25.62;45.55
61484;BME280;47349;55.640;37.692;2022-07-03T07:41:16;99161.84;;;25.64;45.88
61484;BME280;47349;55.640;37.692;2022-07-03T07:44:05;99185.28;;;25.85;45.57
61484;BME280;47349;55.640;37.692;2022-07-03T07:46:46;99176.19;;;25.90;45.76
61484;BME280;47349;55.640;37.692;2022-07-03T07:49:15;99199.03;;;26.14;46.12
61484;BME280;47349;55.640;37.692;2022-07-03T07:51:45;99153.41;;;25.89;43.95
61484;BME280;47349;55.640;37.692;2022-07-03T07:54:29;99154.22;;;25.90;44.50
61484;BME280;47349;55.640;37.692;2022-07-03T07:57:15;99189.72;;;26.10;43.68
61484;BME280;47349;55.640;37.692;2022-07-03T07:59:56;99170.72;;;26.14;43.05
61484;BME280;47349;55.640;37.692;2022-07-03T08:02:24;99160.50;;;26.20;43.47
61484;BME280;47349;55.640;37.692;2022-07-03T08:05:24;99185.72;;;26.27;42.74
61484;BME280;47349;55.640;37.692;2022-07-03T08:08:20;99173.47;;;26.43;42.71
61484;BME280;47349;55.640;37.692;2022-07-03T08:10:54;99183.59;;;26.19;42.24
61484;BME280;47349;55.640;37.692;2022-07-03T08:13:36;99197.81;;;26.26;43.10
61484;BME280;47349;55.640;37.692;2022-07-03T08:16:18;99193.78;;;26.42;43.58
61484;BME280;47349;55.640;37.692;2022-07-03T08:18:46;99184.47;;;26.43;42.56
61484;BME280;47349;55.640;37.692;2022-07-03T08:21:16;99144.78;;;26.25;41.75
61484;BME280;47349;55.640;37.692;2022-07-03T08:23:46;99178.63;;;26.50;41.99
61484;BME280;47349;55.640;37.692;2022-07-03T08:26:14;99195.06;;;26.55;41.67
61484;BME280;47349;55.640;37.692;2022-07-03T08:28:41;99176.16;;;26.48;41.12
61484;BME280;47349;55.640;37.692;2022-07-03T08:31:14;99173.81;;;26.60;41.93
61484;BME280;47349;55.640;37.692;2022-07-03T08:33:43;99174.75;;;26.51;40.79
61484;BME280;47349;55.640;37.692;2022-07-03T08:36:11;99174.41;;;26.57;40.60
61484;BME280;47349;55.640;37.692;2022-07-03T08:38:39;99163.28;;;26.68;40.12
61484;BME280;47349;55.640;37.692;2022-07-03T08:41:09;99200.00;;;26.77;40.62
61484;BME280;47349;55.640;37.692;2022-07-03T08:43:39;99201.44;;;26.93;40.11
61484;BME280;47349;55.640;37.692;2022-07-03T08:46:10;99208.66;;;26.89;40.57
61484;BME280;47349;55.640;37.692;2022-07-03T08:48:40;99189.91;;;26.91;40.70
61484;BME280;47349;55.640;37.692;2022-07-03T08:51:11;99180.47;;;26.97;40.89
61484;BME280;47349;55.640;37.692;2022-07-03T08:53:39;99171.34;;;27.02;40.02
61484;BME280;47349;55.640;37.692;2022-07-03T08:56:07;99170.94;;;27.13;39.83
61484;BME280;47349;55.640;37.692;2022-07-03T08:58:39;99201.94;;;27.19;40.62
61484;BME280;47349;55.640;37.692;2022-07-03T09:01:09;99182.03;;;27.08;39.99
61484;BME280;47349;55.640;37.692;2022-07-03T09:03:37;99195.00;;;27.22;40.47
61484;BME280;47349;55.640;37.692;2022-07-03T09:06:06;99175.69;;;27.27;38.37
61484;BME280;47349;55.640;37.692;2022-07-03T09:08:37;99150.91;;;27.27;38.31
61484;BME280;47349;55.640;37.692;2022-07-03T09:11:05;99183.56;;;27.14;37.74
61484;BME280;47349;55.640;37.692;2022-07-03T09:13:34;99182.25;;;26.88;37.23
61484;BME280;47349;55.640;37.692;2022-07-03T09:16:18;99171.94;;;26.99;38.08
61484;BME280;47349;55.640;37.692;2022-07-03T09:19:02;99180.91;;;27.28;38.09
61484;BME280;47349;55.640;37.692;2022-07-03T09:21:43;99146.31;;;27.22;38.09
61484;BME280;47349;55.640;37.692;2022-07-03T09:24:13;99168.22;;;27.46;38.15
61484;BME280;47349;55.640;37.692;2022-07-03T09:26:51;99170.94;;;27.65;38.33
61484;BME280;47349;55.640;37.692;2022-07-03T09:29:19;99188.97;;;27.76;38.32
61484;BME280;47349;55.640;37.692;2022-07-03T09:31:54;99143.13;;;27.66;36.94
61484;BME280;47349;55.640;37.692;2022-07-03T09:34:23;99152.22;;;27.67;35.66
61484;BME280;47349;55.640;37.692;2022-07-03T09:36:54;99169.31;;;27.83;35.34
61484;BME280;47349;55.640;37.692;2022-07-03T09:39:27;99170.81;;;27.75;36.03
61484;BME280;47349;55.640;37.692;2022-07-03T09:44:37;99197.03;;;27.73;35.12
61484;BME280;47349;55.640;37.692;2022-07-03T09:49:49;99186.81;;;27.73;34.81
61484;BME280;47349;55.640;37.692;2022-07-03T09:57:41;99154.16;;;27.66;35.33
61484;BME280;47349;55.640;37.692;2022-07-03T10:00:14;99181.25;;;27.92;32.20
61484;BME280;47349;55.640;37.692;2022-07-03T10:05:24;99177.16;;;27.76;33.56
61484;BME280;47349;55.640;37.692;2022-07-03T10:07:58;99151.72;;;27.46;34.86
61484;BME280;47349;55.640;37.692;2022-07-03T10:10:41;99189.84;;;27.90;34.23
61484;BME280;47349;55.640;37.692;2022-07-03T10:13:10;99182.53;;;28.00;33.07
61484;BME280;47349;55.640;37.692;2022-07-03T10:16:16;99170.94;;;27.51;32.84
61484;BME280;47349;55.640;37.692;2022-07-03T10:19:06;99164.66;;;27.46;32.44
61484;BME280;47349;55.640;37.692;2022-07-03T10:21:35;99168.75;;;27.48;32.44
61484;BME280;47349;55.640;37.692;2022-07-03T10:24:08;99178.25;;;27.75;32.81
61484;BME280;47349;55.640;37.692;2022-07-03T10:26:37;99184.78;;;27.60;31.66
61484;BME280;47349;55.640;37.692;2022-07-03T10:29:08;99165.25;;;27.61;31.18
61484;BME280;47349;55.640;37.692;2022-07-03T10:31:47;99148.00;;;27.70;33.13
61484;BME280;47349;55.640;37.692;2022-07-03T10:34:21;99172.41;;;27.95;33.82
61484;BME280;47349;55.640;37.692;2022-07-03T10:37:01;99163.22;;;28.00;33.78
61484;BME280;47349;55.640;37.692;2022-07-03T10:39:46;99176.25;;;27.94;34.39
61484;BME280;47349;55.640;37.692;2022-07-03T10:42:31;99164.09;;;27.81;29.56
61484;BME280;47349;55.640;37.692;2022-07-03T10:49:11;99154.50;;;27.79;33.19
61484;BME280;47349;55.640;37.692;2022-07-03T10:52:03;99173.09;;;27.87;31.16
61484;BME280;47349;55.640;37.692;2022-07-03T10:54:58;99161.22;;;27.73;32.49
61484;BME280;47349;55.640;37.692;2022-07-03T10:57:42;99164.84;;;27.87;32.31
61484;BME280;47349;55.640;37.692;2022-07-03T11:00:18;99167.31;;;28.02;32.72
61484;BME280;47349;55.640;37.692;2022-07-03T11:03:02;99160.66;;;28.03;32.71
61484;BME280;47349;55.640;37.692;2022-07-03T11:05:37;99180.38;;;28.10;33.05
61484;BME280;47349;55.640;37.692;2022-07-03T11:08:17;99145.97;;;28.08;33.50
61484;BME280;47349;55.640;37.692;2022-07-03T11:10:52;99132.53;;;28.06;33.11
61484;BME280;47349;55.640;37.692;2022-07-03T11:14:17;99157.47;;;28.56;32.82
61484;BME280;47349;55.640;37.692;2022-07-03T11:16:47;99149.00;;;28.39;31.52
61484;BME280;47349;55.640;37.692;2022-07-03T11:19:25;99151.13;;;28.42;31.86
61484;BME280;47349;55.640;37.692;2022-07-03T11:21:59;99129.06;;;28.69;31.83
61484;BME280;47349;55.640;37.692;2022-07-03T11:24:45;99117.69;;;28.99;31.83
61484;BME280;47349;55.640;37.692;2022-07-03T11:27:23;99163.25;;;28.96;32.76
61484;BME280;47349;55.640;37.692;2022-07-03T11:29:55;99138.84;;;28.76;32.85
61484;BME280;47349;55.640;37.692;2022-07-03T11:32:54;99128.00;;;29.07;32.62
61484;BME280;47349;55.640;37.692;2022-07-03T11:35:50;99155.16;;;29.13;31.52
61484;BME280;47349;55.640;37.692;2022-07-03T11:38:29;99142.84;;;29.19;31.54
61484;BME280;47349;55.640;37.692;2022-07-03T11:40:59;99120.47;;;29.43;31.59
61484;BME280;47349;55.640;37.692;2022-07-03T11:43:30;99148.59;;;29.09;32.31
61484;BME280;47349;55.640;37.692;2022-07-03T11:46:08;99157.53;;;29.29;31.98
61484;BME280;47349;55.640;37.692;2022-07-03T11:48:36;99149.53;;;29.41;31.47
61484;BME280;47349;55.640;37.692;2022-07-03T11:51:07;99118.19;;;29.59;31.62
61484;BME280;47349;55.640;37.692;2022-07-03T11:53:36;99115.19;;;29.78;31.33
61484;BME280;47349;55.640;37.692;2022-07-03T11:56:08;99156.06;;;30.21;31.15
61484;BME280;47349;55.640;37.692;2022-07-03T11:58:52;99141.69;;;30.50;31.89
61484;BME280;47349;55.640;37.692;2022-07-03T12:04:24;99111.38;;;29.96;31.73
61484;BME280;47349;55.640;37.692;2022-07-03T12:06:55;99103.69;;;29.85;31.96
61484;BME280;47349;55.640;37.692;2022-07-03T12:09:30;99128.78;;;29.97;31.53
61484;BME280;47349;55.640;37.692;2022-07-03T12:12:08;99113.06;;;29.53;31.01
61484;BME280;47349;55.640;37.692;2022-07-03T12:14:44;99120.56;;;29.75;30.53
61484;BME280;47349;55.640;37.692;2022-07-03T12:17:22;99138.91;;;30.10;30.88
61484;BME280;47349;55.640;37.692;2022-07-03T12:19:58;99133.81;;;29.95;31.17
61484;BME280;47349;55.640;37.692;2022-07-03T12:22:44;99103.31;;;29.78;31.47
61484;BME280;47349;55.640;37.692;2022-07-03T12:25:12;99101.94;;;29.98;30.75
61484;BME280;47349;55.640;37.692;2022-07-03T12:27:45;99136.34;;;29.83;31.63
61484;BME280;47349;55.640;37.692;2022-07-03T12:30:20;99122.91;;;29.90;31.61
61484;BME280;47349;55.640;37.692;2022-07-03T12:32:56;99125.88;;;30.33;31.45
61484;BME280;47349;55.640;37.692;2022-07-03T12:35:27;99107.47;;;30.77;30.49
61484;BME280;47349;55.640;37.692;2022-07-03T12:37:55;99116.69;;;30.64;30.34
61484;BME280;47349;55.640;37.692;2022-07-03T12:40:22;99110.16;;;30.51;30.44
61484;BME280;47349;55.640;37.692;2022-07-03T12:42:51;99107.81;;;30.36;29.93
61484;BME280;47349;55.640;37.692;2022-07-03T12:45:21;99129.09;;;30.84;30.20
61484;BME280;47349;55.640;37.692;2022-07-03T12:48:02;99114.16;;;31.02;29.35
61484;BME280;47349;55.640;37.692;2022-07-03T12:50:47;99126.72;;;31.34;29.49
61484;BME280;47349;55.640;37.692;2022-07-03T12:53:32;99116.94;;;31.37;29.89
61484;BME280;47349;55.640;37.692;2022-07-03T12:56:05;99068.47;;;31.69;29.11
61484;BME280;47349;55.640;37.692;2022-07-03T12:58:36;99097.00;;;31.69;28.31
61484;BME280;47349;55.640;37.692;2022-07-03T13:01:31;99111.41;;;31.28;28.81
61484;BME280;47349;55.640;37.692;2022-07-03T13:04:11;99074.09;;;30.74;29.49
61484;BME280;47349;55.640;37.692;2022-07-03T13:07:09;99102.25;;;30.76;28.79
61484;BME280;47349;55.640;37.692;2022-07-03T13:10:21;99089.59;;;30.35;28.70
61484;BME280;47349;55.640;37.692;2022-07-03T13:13:50;99122.13;;;31.12;28.13
61484;BME280;47349;55.640;37.692;2022-07-03T13:16:38;99098.03;;;31.21;28.13
61484;BME280;47349;55.640;37.692;2022-07-03T13:19:26;99116.44;;;31.00;27.95
61484;BME280;47349;55.640;37.692;2022-07-03T13:26:44;99111.06;;;30.95;26.67
61484;BME280;47349;55.640;37.692;2022-07-03T13:29:39;99086.13;;;31.12;26.31
61484;BME280;47349;55.640;37.692;2022-07-03T13:32:22;99091.19;;;31.36;27.79
61484;BME280;47349;55.640;37.692;2022-07-03T13:34:53;99065.28;;;31.23;28.50
61484;BME280;47349;55.640;37.692;2022-07-03T13:37:38;99098.03;;;31.13;26.87
61484;BME280;47349;55.640;37.692;2022-07-03T13:40:45;99087.94;;;31.00;25.19
61484;BME280;47349;55.640;37.692;2022-07-03T13:43:33;99091.44;;;30.48;26.01
61484;BME280;47349;55.640;37.692;2022-07-03T13:46:19;99077.69;;;30.83;26.24
61484;BME280;47349;55.640;37.692;2022-07-03T13:48:49;99092.09;;;30.54;26.42
61484;BME280;47349;55.640;37.692;2022-07-03T13:51:17;99100.38;;;30.45;26.54
61484;BME280;47349;55.640;37.692;2022-07-03T13:53:45;99106.56;;;30.42;26.41
61484;BME280;47349;55.640;37.692;2022-07-03T13:56:17;99090.63;;;30.48;25.68
61484;BME280;47349;55.640;37.692;2022-07-03T13:58:47;99052.63;;;30.88;25.92
61484;BME280;47349;55.640;37.692;2022-07-03T14:01:21;99080.94;;;31.37;25.53
61484;BME280;47349;55.640;37.692;2022-07-03T14:03:52;99070.63;;;30.68;25.65
61484;BME280;47349;55.640;37.692;2022-07-03T14:06:35;99068.38;;;30.61;25.77
61484;BME280;47349;55.640;37.692;2022-07-03T14:09:05;99088.59;;;31.05;25.40
61484;BME280;47349;55.640;37.692;2022-07-03T14:11:37;99044.13;;;31.36;24.99
61484;BME280;47349;55.640;37.692;2022-07-03T14:14:09;99019.78;;;31.59;23.62
61484;BME280;47349;55.640;37.692;2022-07-03T14:16:38;99079.59;;;31.60;23.54
61484;BME280;47349;55.640;37.692;2022-07-03T14:19:06;99073.75;;;31.53;24.23
61484;BME280;47349;55.640;37.692;2022-07-03T14:21:38;99065.13;;;31.46;24.53
61484;BME280;47349;55.640;37.692;2022-07-03T14:24:08;99063.63;;;31.57;24.92
61484;BME280;47349;55.640;37.692;2022-07-03T14:26:38;99062.31;;;31.63;24.83
61484;BME280;47349;55.640;37.692;2022-07-03T14:29:24;99079.66;;;31.98;24.19
61484;BME280;47349;55.640;37.692;2022-07-03T14:32:10;99057.50;;;31.90;24.35
61484;BME280;47349;55.640;37.692;2022-07-03T14:34:56;99072.72;;;32.13;24.65
61484;BME280;47349;55.640;37.692;2022-07-03T14:37:30;99032.19;;;32.30;24.29
61484;BME280;47349;55.640;37.692;2022-07-03T14:39:57;99052.75;;;32.58;24.31
61484;BME280;47349;55.640;37.692;2022-07-03T14:42:25;99035.22;;;32.45;24.66
61484;BME280;47349;55.640;37.692;2022-07-03T14:44:52;99054.38;;;32.59;24.70
61484;BME280;47349;55.640;37.692;2022-07-03T14:47:19;99060.75;;;32.81;24.35
61484;BME280;47349;55.640;37.692;2022-07-03T14:49:47;99046.78;;;32.68;24.99
61484;BME280;47349;55.640;37.692;2022-07-03T14:52:15;99070.63;;;33.11;24.92
61484;BME280;47349;55.640;37.692;2022-07-03T14:54:42;99045.69;;;32.90;25.25
61484;BME280;47349;55.640;37.692;2022-07-03T14:57:52;99072.19;;;32.20;25.72
61484;BME280;47349;55.640;37.692;2022-07-03T15:00:19;99070.97;;;31.53;25.86
61484;BME280;47349;55.640;37.692;2022-07-03T15:03:06;99088.03;;;31.72;26.07
61484;BME280;47349;55.640;37.692;2022-07-03T15:05:40;99068.88;;;31.41;26.19
61484;BME280;47349;55.640;37.692;2022-07-03T15:10:44;99065.91;;;31.55;25.07
61484;BME280;47349;55.640;37.692;2022-07-03T15:13:14;99078.78;;;31.51;25.78
61484;BME280;47349;55.640;37.692;2022-07-03T15:15:45;99061.28;;;31.77;25.32
61484;BME280;47349;55.640;37.692;2022-07-03T15:18:19;99048.81;;;32.00;24.46
61484;BME280;47349;55.640;37.692;2022-07-03T15:20:50;99063.97;;;32.41;24.40
61484;BME280;47349;55.640;37.692;2022-07-03T15:23:20;99057.63;;;32.61;24.10
61484;BME280;47349;55.640;37.692;2022-07-03T15:25:49;99071.03;;;32.59;24.02
61484;BME280;47349;55.640;37.692;2022-07-03T15:28:17;99072.41;;;32.95;23.90
61484;BME280;47349;55.640;37.692;2022-07-03T15:30:56;99067.81;;;32.99;23.93
61484;BME280;47349;55.640;37.692;2022-07-03T15:33:23;99066.72;;;32.70;24.49
61484;BME280;47349;55.640;37.692;2022-07-03T15:35:58;99076.16;;;32.48;24.11
61484;BME280;47349;55.640;37.692;2022-07-03T15:38:52;99073.97;;;31.86;23.75
61484;BME280;47349;55.640;37.692;2022-07-03T15:41:31;99103.19;;;32.22;23.79
61484;BME280;47349;55.640;37.692;2022-07-03T15:44:07;99088.44;;;32.39;23.69
61484;BME280;47349;55.640;37.692;2022-07-03T15:47:08;99056.13;;;32.43;23.50
61484;BME280;47349;55.640;37.692;2022-07-03T15:49:42;99083.75;;;32.60;24.33
61484;BME280;47349;55.640;37.692;2022-07-03T15:52:21;99076.53;;;32.38;23.71
61484;BME280;47349;55.640;37.692;2022-07-03T15:55:07;99066.41;;;32.42;22.94
61484;BME280;47349;55.640;37.692;2022-07-03T15:57:51;99061.56;;;32.60;23.19
61484;BME280;47349;55.640;37.692;2022-07-03T16:00:22;99069.34;;;32.88;24.11
61484;BME280;47349;55.640;37.692;2022-07-03T16:02:55;99081.66;;;32.78;23.31
61484;BME280;47349;55.640;37.692;2022-07-03T16:05:30;99079.66;;;31.98;23.29
61484;BME280;47349;55.640;37.692;2022-07-03T16:08:02;99065.56;;;31.65;23.75
61484;BME280;47349;55.640;37.692;2022-07-03T16:10:35;99079.91;;;31.67;23.63
61484;BME280;47349;55.640;37.692;2022-07-03T16:13:03;99069.75;;;31.89;23.32
61484;BME280;47349;55.640;37.692;2022-07-03T16:15:37;99083.78;;;31.66;23.01
61484;BME280;47349;55.640;37.692;2022-07-03T16:18:10;99089.41;;;31.32;22.51
61484;BME280;47349;55.640;37.692;2022-07-03T16:20:39;99079.00;;;31.29;22.15
61484;BME280;47349;55.640;37.692;2022-07-03T16:23:09;99100.16;;;31.07;22.34
61484;BME280;47349;55.640;37.692;2022-07-03T16:25:38;99073.28;;;30.99;22.61
61484;BME280;47349;55.640;37.692;2022-07-03T16:28:11;99059.63;;;31.29;22.00
61484;BME280;47349;55.640;37.692;2022-07-03T16:30:47;99077.34;;;31.45;22.34
61484;BME280;47349;55.640;37.692;2022-07-03T16:33:22;99060.81;;;31.66;22.20
61484;BME280;47349;55.640;37.692;2022-07-03T16:36:03;99115.94;;;31.41;22.74
61484;BME280;47349;55.640;37.692;2022-07-03T16:38:40;99099.84;;;31.00;22.79
61484;BME280;47349;55.640;37.692;2022-07-03T16:41:10;99081.91;;;30.89;23.36
61484;BME280;47349;55.640;37.692;2022-07-03T16:43:39;99098.34;;;30.77;22.50
61484;BME280;47349;55.640;37.692;2022-07-03T16:46:09;99077.03;;;31.03;23.03
61484;BME280;47349;55.640;37.692;2022-07-03T16:48:43;99093.63;;;31.38;22.65
61484;BME280;47349;55.640;37.692;2022-07-03T16:51:13;99106.00;;;31.49;22.72
61484;BME280;47349;55.640;37.692;2022-07-03T16:53:41;99091.47;;;31.61;23.08
61484;BME280;47349;55.640;37.692;2022-07-03T16:56:11;99078.63;;;31.56;23.07
61484;BME280;47349;55.640;37.692;2022-07-03T16:58:39;99059.41;;;31.51;23.43
61484;BME280;47349;55.640;37.692;2022-07-03T17:01:08;99062.19;;;31.25;23.65
61484;BME280;47349;55.640;37.692;2022-07-03T17:03:38;99077.84;;;31.21;23.72
61484;BME280;47349;55.640;37.692;2022-07-03T17:06:06;99076.03;;;31.16;23.89
61484;BME280;47349;55.640;37.692;2022-07-03T17:08:35;99076.13;;;30.51;24.19
61484;BME280;47349;55.640;37.692;2022-07-03T17:11:05;99091.06;;;30.32;24.33
61484;BME280;47349;55.640;37.692;2022-07-03T17:13:49;99076.22;;;30.19;24.10
61484;BME280;47349;55.640;37.692;2022-07-03T17:16:19;99070.63;;;30.11;24.55
61484;BME280;47349;55.640;37.692;2022-07-03T17:18:50;99078.41;;;30.00;24.23
61484;BME280;47349;55.640;37.692;2022-07-03T17:21:28;99065.84;;;29.85;24.83
61484;BME280;47349;55.640;37.692;2022-07-03T17:24:00;99093.38;;;29.99;24.21
61484;BME280;47349;55.640;37.692;2022-07-03T17:26:32;99091.66;;;29.81;24.52
61484;BME280;47349;55.640;37.692;2022-07-03T17:29:02;99074.28;;;29.58;24.65
61484;BME280;47349;55.640;37.692;2022-07-03T17:31:35;99095.44;;;29.62;25.02
61484;BME280;47349;55.640;37.692;2022-07-03T17:34:07;99090.59;;;29.45;25.83
61484;BME280;47349;55.640;37.692;2022-07-03T17:36:44;99090.19;;;28.93;26.44
61484;BME280;47349;55.640;37.692;2022-07-03T17:39:39;99090.44;;;28.69;27.24
61484;BME280;47349;55.640;37.692;2022-07-03T17:42:18;99118.25;;;28.59;27.17
61484;BME280;47349;55.640;37.692;2022-07-03T17:44:55;99104.16;;;28.20;27.42
61484;BME280;47349;55.640;37.692;2022-07-03T17:47:24;99102.31;;;28.01;27.28
61484;BME280;47349;55.640;37.692;2022-07-03T17:49:53;99100.13;;;27.84;27.71
61484;BME280;47349;55.640;37.692;2022-07-03T17:52:24;99124.66;;;28.00;28.43
61484;BME280;47349;55.640;37.692;2022-07-03T17:54:52;99092.88;;;27.75;28.34
61484;BME280;47349;55.640;37.692;2022-07-03T17:57:21;99108.16;;;27.67;28.67
61484;BME280;47349;55.640;37.692;2022-07-03T18:00:20;99132.56;;;27.74;28.82
61484;BME280;47349;55.640;37.692;2022-07-03T18:02:50;99098.22;;;27.52;29.43
61484;BME280;47349;55.640;37.692;2022-07-03T18:05:34;99118.94;;;27.63;29.60
61484;BME280;47349;55.640;37.692;2022-07-03T18:10:47;99129.78;;;27.41;30.18